createdAt,value
2019-02-09T00:01:06.537Z,6.27
2019-02-09T00:03:41.587Z,8.77
2019-02-09T00:06:10.973Z,11.10
2019-02-09T00:08:49.186Z,6.37
2019-02-09T00:11:24.472Z,9.57
2019-02-09T00:14:14.046Z,7.87
2019-02-09T00:16:47.335Z,9.13
2019-02-09T00:19:20.751Z,11.23
2019-02-09T00:21:51.583Z,9.10
2019-02-09T00:24:46.152Z,11.57
2019-02-09T00:27:20.417Z,7.90
2019-02-09T00:29:58.014Z,9.03
2019-02-09T00:32:44.917Z,7.90
2019-02-09T00:35:19.111Z,7.03
2019-02-09T00:38:19.791Z,8.43
2019-02-09T00:41:05.127Z,12.43
2019-02-09T00:44:00.058Z,10.13
2019-02-09T00:46:42.215Z,8.30
2019-02-09T00:52:22.045Z,7.83
2019-02-09T00:55:00.821Z,12.73
2019-02-09T00:57:45.921Z,11.30
2019-02-09T01:00:31.620Z,13.83
2019-02-09T01:03:18.621Z,16.73
2019-02-09T01:06:48.234Z,13.50
2019-02-09T01:08:55.328Z,16.37
2019-02-09T01:11:38.898Z,13.80
2019-02-09T01:14:14.458Z,12.90
2019-02-09T01:16:58.145Z,18.33
2019-02-09T01:19:35.992Z,11.10
2019-02-09T01:22:17.483Z,9.67
2019-02-09T01:24:49.359Z,11.13
2019-02-09T01:27:21.733Z,11.80
2019-02-09T01:30:02.508Z,17.27
2019-02-09T01:32:38.647Z,8.97
2019-02-09T01:35:27.476Z,10.20
2019-02-09T01:38:00.776Z,9.50
2019-02-09T01:40:32.901Z,8.57
2019-02-09T01:43:08.224Z,12.40
2019-02-09T01:45:43.275Z,10.07
2019-02-09T01:48:19.137Z,8.50
2019-02-09T01:50:51.367Z,11.63
2019-02-09T01:53:33.112Z,11.80
2019-02-09T01:56:02.637Z,12.83
2019-02-09T01:58:37.456Z,9.60
2019-02-09T02:01:07.489Z,12.70
2019-02-09T02:03:43.249Z,16.47
2019-02-09T02:06:23.470Z,17.33
2019-02-09T02:09:03.852Z,11.13
2019-02-09T02:11:47.277Z,12.40
2019-02-09T02:14:20.766Z,9.17
2019-02-09T02:16:52.447Z,15.80
2019-02-09T02:19:30.525Z,7.53
2019-02-09T02:22:01.577Z,12.63
2019-02-09T02:27:23.590Z,16.40
2019-02-09T02:29:57.034Z,11.93
2019-02-09T02:32:26.867Z,22.17
2019-02-09T02:35:03.890Z,20.10
2019-02-09T02:37:34.579Z,15.57
2019-02-09T02:40:10.001Z,22.13
2019-02-09T02:42:42.399Z,16.77
2019-02-09T02:45:13.735Z,25.37
2019-02-09T02:48:01.039Z,17.93
2019-02-09T02:50:35.355Z,14.63
2019-02-09T02:53:10.011Z,18.73
2019-02-09T02:55:40.994Z,19.40
2019-02-09T02:58:10.937Z,22.47
2019-02-09T03:00:40.613Z,19.50
2019-02-09T03:03:14.382Z,20.17
2019-02-09T03:05:50.066Z,20.57
2019-02-09T03:08:29.043Z,18.13
2019-02-09T03:11:04.045Z,26.53
2019-02-09T03:13:48.055Z,17.77
2019-02-09T03:16:29.802Z,23.33
2019-02-09T03:19:02.376Z,18.83
2019-02-09T03:21:33.856Z,28.17
2019-02-09T03:24:05.172Z,21.50
2019-02-09T03:26:34.467Z,22.90
2019-02-09T03:29:05.556Z,28.33
2019-02-09T03:31:40.850Z,33.10
2019-02-09T03:34:15.615Z,25.90
2019-02-09T03:36:46.229Z,24.07
2019-02-09T03:39:20.360Z,36.80
2019-02-09T03:41:50.968Z,24.00
2019-02-09T03:44:24.433Z,20.97
2019-02-09T03:46:56.510Z,28.20
2019-02-09T03:49:26.571Z,28.57
2019-02-09T03:52:01.606Z,21.77
2019-02-09T03:54:32.118Z,21.80
2019-02-09T03:57:05.316Z,23.33
2019-02-09T03:59:38.456Z,19.90
2019-02-09T04:02:13.233Z,26.07
2019-02-09T04:04:43.234Z,24.43
2019-02-09T04:07:12.933Z,30.33
2019-02-09T04:09:42.482Z,22.83
2019-02-09T04:12:12.969Z,21.90
2019-02-09T04:14:43.125Z,18.00
2019-02-09T04:17:16.159Z,26.60
2019-02-09T04:19:45.515Z,20.07
2019-02-09T04:22:16.388Z,25.57
2019-02-09T04:24:45.780Z,28.87
2019-02-09T04:27:15.206Z,19.73
2019-02-09T04:29:50.031Z,22.73
2019-02-09T04:35:45.086Z,18.60
2019-02-09T04:38:15.361Z,26.53
2019-02-09T04:40:48.052Z,28.77
2019-02-09T04:43:17.795Z,29.87
2019-02-09T04:45:47.462Z,29.40
2019-02-09T04:48:18.512Z,21.30
2019-02-09T04:50:51.981Z,23.60
2019-02-09T04:53:21.863Z,29.03
2019-02-09T04:55:51.493Z,24.37
2019-02-09T04:58:21.695Z,35.73
2019-02-09T05:00:51.126Z,33.23
2019-02-09T05:03:24.101Z,32.67
2019-02-09T05:05:57.654Z,26.37
2019-02-09T05:08:29.633Z,26.17
2019-02-09T05:10:59.440Z,25.20
2019-02-09T05:13:32.455Z,26.47
2019-02-09T05:16:02.181Z,24.47
2019-02-09T05:18:36.309Z,24.23
2019-02-09T05:21:13.402Z,22.17
2019-02-09T05:24:03.368Z,26.37
2019-02-09T05:26:35.584Z,29.40
2019-02-09T05:29:08.356Z,24.57
2019-02-09T05:31:40.482Z,32.47
2019-02-09T05:34:10.221Z,29.10
2019-02-09T05:36:40.426Z,35.57
2019-02-09T05:39:09.719Z,23.40
2019-02-09T05:41:38.961Z,26.57
2019-02-09T05:44:08.224Z,22.27
2019-02-09T05:46:37.660Z,32.50
2019-02-09T05:49:11.748Z,28.07
2019-02-09T05:51:42.087Z,27.37
2019-02-09T05:54:12.216Z,31.93
2019-02-09T05:56:42.054Z,29.50
2019-02-09T05:59:14.269Z,34.53
2019-02-09T06:01:46.751Z,22.27
2019-02-09T06:04:16.630Z,25.63
2019-02-09T06:06:47.570Z,27.87
2019-02-09T06:09:17.208Z,17.73
2019-02-09T06:11:47.792Z,23.10
2019-02-09T06:14:17.444Z,25.10
2019-02-09T06:16:46.776Z,23.70
2019-02-09T06:19:16.354Z,27.73
2019-02-09T06:21:45.862Z,24.10
2019-02-09T06:24:17.204Z,25.87
2019-02-09T06:26:47.233Z,24.73
2019-02-09T06:29:16.987Z,26.37
2019-02-09T06:31:49.074Z,17.77
2019-02-09T06:34:18.670Z,28.80
2019-02-09T06:36:48.327Z,26.90
2019-02-09T06:39:17.818Z,28.57
2019-02-09T06:41:47.658Z,16.67
2019-02-09T06:44:19.724Z,28.00
2019-02-09T06:46:49.605Z,28.40
2019-02-09T06:49:22.216Z,29.27
2019-02-09T06:51:54.597Z,31.07
2019-02-09T06:54:29.387Z,31.47
2019-02-09T06:56:58.968Z,38.80
2019-02-09T06:59:35.802Z,31.77
2019-02-09T07:02:04.649Z,32.87
2019-02-09T07:04:34.688Z,28.57
2019-02-09T07:07:03.696Z,41.33
2019-02-09T07:09:32.291Z,39.53
2019-02-09T07:12:00.960Z,36.07
2019-02-09T07:14:29.613Z,38.17
2019-02-09T07:17:00.276Z,44.97
2019-02-09T07:19:29.135Z,35.00
2019-02-09T07:21:58.143Z,41.00
2019-02-09T07:24:27.107Z,38.73
2019-02-09T07:26:58.630Z,40.30
2019-02-09T07:29:27.596Z,41.00
2019-02-09T07:31:56.792Z,33.53
2019-02-09T07:34:25.709Z,40.87
2019-02-09T07:36:54.874Z,38.77
2019-02-09T07:39:23.783Z,40.90
2019-02-09T07:41:52.582Z,32.50
2019-02-09T07:44:21.439Z,42.63
2019-02-09T07:46:50.314Z,32.77
2019-02-09T07:49:18.979Z,45.07
2019-02-09T07:51:47.930Z,43.77
2019-02-09T07:54:16.766Z,54.50
2019-02-09T07:56:45.565Z,36.13
2019-02-09T07:59:14.341Z,29.10
2019-02-09T08:01:43.285Z,36.70
2019-02-09T08:04:11.784Z,33.23
2019-02-09T08:06:41.347Z,44.37
2019-02-09T08:09:11.717Z,31.97
2019-02-09T08:11:40.567Z,38.33
2019-02-09T08:14:09.742Z,34.27
2019-02-09T08:17:13.286Z,34.77
2019-02-09T08:19:45.232Z,37.10
2019-02-09T08:22:13.994Z,31.60
2019-02-09T08:24:42.703Z,32.37
2019-02-09T08:27:11.451Z,33.20
2019-02-09T08:29:42.127Z,26.37
2019-02-09T08:32:12.779Z,31.77
2019-02-09T08:34:43.257Z,26.50
2019-02-09T08:37:12.110Z,34.57
2019-02-09T08:39:48.177Z,30.30
2019-02-09T08:42:16.927Z,28.17
2019-02-09T08:44:46.868Z,37.70
2019-02-09T08:47:15.760Z,36.97
2019-02-09T08:50:20.607Z,27.83
2019-02-09T08:53:09.559Z,29.40
2019-02-09T08:56:15.275Z,30.63
2019-02-09T08:58:51.295Z,27.57
2019-02-09T09:04:35.149Z,28.33
2019-02-09T09:07:06.650Z,33.47
2019-02-09T09:09:47.471Z,32.10
2019-02-09T09:13:25.299Z,40.47
2019-02-09T09:15:53.281Z,36.00
2019-02-09T09:18:21.338Z,23.07
2019-02-09T09:20:52.837Z,28.73
2019-02-09T09:23:24.555Z,20.53
2019-02-09T09:25:53.432Z,28.60
2019-02-09T09:28:22.080Z,26.33
2019-02-09T09:30:51.198Z,25.97
2019-02-09T09:33:19.908Z,36.50
2019-02-09T09:35:48.892Z,25.30
2019-02-09T09:38:17.593Z,30.20
2019-02-09T09:40:46.070Z,27.60
2019-02-09T09:43:14.807Z,30.90
2019-02-09T09:45:43.774Z,28.87
2019-02-09T09:48:13.353Z,28.10
2019-02-09T09:50:42.745Z,26.57
2019-02-09T09:53:11.615Z,29.37
2019-02-09T09:55:41.323Z,35.30
2019-02-09T09:58:10.769Z,37.13
2019-02-09T10:01:03.356Z,22.93
2019-02-09T10:03:32.345Z,24.43
2019-02-09T10:06:01.246Z,27.10
2019-02-09T10:08:30.621Z,22.03
2019-02-09T10:11:00.045Z,29.87
2019-02-09T10:13:29.005Z,32.00
2019-02-09T10:16:00.851Z,28.60
2019-02-09T10:18:29.896Z,23.63
2019-02-09T10:21:04.671Z,25.67
2019-02-09T10:23:35.425Z,28.63
2019-02-09T10:26:04.083Z,28.97
2019-02-09T10:28:33.033Z,23.70
2019-02-09T10:31:01.978Z,33.17
2019-02-09T10:33:32.016Z,27.33
2019-02-09T10:36:06.233Z,29.80
2019-02-09T10:38:44.697Z,36.63
2019-02-09T10:41:18.794Z,27.23
2019-02-09T10:43:47.741Z,29.57
2019-02-09T10:46:21.642Z,30.33
2019-02-09T10:48:51.460Z,33.67
2019-02-09T10:51:20.548Z,28.13
2019-02-09T10:53:55.703Z,30.67
2019-02-09T10:56:24.942Z,34.27
2019-02-09T10:58:54.138Z,33.20
2019-02-09T11:01:40.413Z,30.13
2019-02-09T11:04:32.202Z,32.27
2019-02-09T11:06:53.792Z,20.10
2019-02-09T11:09:22.747Z,19.33
2019-02-09T11:11:51.968Z,28.80
2019-02-09T11:14:23.608Z,22.77
2019-02-09T11:16:52.527Z,23.70
2019-02-09T11:19:25.559Z,22.77
2019-02-09T11:21:55.256Z,22.83
2019-02-09T11:24:24.661Z,25.80
2019-02-09T11:26:56.301Z,29.40
2019-02-09T11:29:25.554Z,27.70
2019-02-09T11:31:54.328Z,21.33
2019-02-09T11:38:01.852Z,24.57
2019-02-09T11:41:09.407Z,27.53
2019-02-09T11:43:48.517Z,31.37
2019-02-09T11:57:04.796Z,31.17
2019-02-09T12:23:28.734Z,25.67
2019-02-09T12:26:08.023Z,35.30
2019-02-09T13:06:18.397Z,32.40
2019-02-09T13:08:47.236Z,34.37
2019-02-09T13:11:16.041Z,23.40
2019-02-09T13:13:46.006Z,23.23
2019-02-09T13:28:11.658Z,29.33
2019-02-09T13:30:46.295Z,32.57
2019-02-09T13:34:13.343Z,32.43
2019-02-09T13:47:51.429Z,25.97
2019-02-09T14:37:47.994Z,26.37
2019-02-09T14:40:20.493Z,24.77
2019-02-09T14:42:49.887Z,36.40
2019-02-09T14:45:19.844Z,35.63
2019-02-09T14:47:49.727Z,26.47
2019-02-09T14:50:21.449Z,26.73
2019-02-09T14:52:50.166Z,35.90
2019-02-09T14:55:29.966Z,25.93
2019-02-09T14:58:32.483Z,39.33
2019-02-09T15:01:15.367Z,23.63
2019-02-09T15:04:12.378Z,30.23
2019-02-09T15:06:49.696Z,39.40
2019-02-09T15:09:27.006Z,38.83
2019-02-09T15:12:11.700Z,32.63
2019-02-09T15:14:38.192Z,39.00
2019-02-09T15:20:10.581Z,24.37
2019-02-09T15:22:42.204Z,24.47
2019-02-09T15:25:19.602Z,32.67
2019-02-09T15:27:52.606Z,28.50
2019-02-09T15:30:25.154Z,26.30
2019-02-09T15:33:04.786Z,38.73
2019-02-09T15:35:43.816Z,27.17
2019-02-09T15:38:22.262Z,21.53
2019-02-09T15:41:05.386Z,28.40
2019-02-09T15:43:39.321Z,29.50
2019-02-09T15:46:20.726Z,29.23
2019-02-09T15:48:52.924Z,19.67
2019-02-09T15:51:34.471Z,24.00
2019-02-09T15:54:27.061Z,25.93
2019-02-09T15:57:03.029Z,24.23
2019-02-09T16:00:11.652Z,30.40
2019-02-09T16:03:09.627Z,33.33
2019-02-09T16:06:10.805Z,31.40
2019-02-09T16:08:51.238Z,28.00
2019-02-09T16:11:28.537Z,29.27
2019-02-09T16:14:38.069Z,31.83
2019-02-09T16:17:17.915Z,27.23
2019-02-09T16:19:48.956Z,24.53
2019-02-09T16:22:30.542Z,28.30
2019-02-09T16:25:02.346Z,26.00
2019-02-09T16:30:46.360Z,30.77
2019-02-09T16:33:17.505Z,29.27
2019-02-09T16:36:00.953Z,25.83
2019-02-09T16:38:47.635Z,34.33
2019-02-09T16:41:27.002Z,27.60
2019-02-09T16:44:08.101Z,33.30
2019-02-09T16:46:44.841Z,25.70
2019-02-09T16:49:43.976Z,27.33
2019-02-09T16:52:13.356Z,35.13
2019-02-09T16:54:42.863Z,34.97
2019-02-09T16:57:18.215Z,37.20
2019-02-09T17:02:37.168Z,34.43
2019-02-09T17:16:05.785Z,31.60
2019-02-09T17:18:38.813Z,28.47
2019-02-09T17:21:18.432Z,34.77
2019-02-09T17:24:32.322Z,27.80
2019-02-09T17:27:24.515Z,32.87
2019-02-09T19:04:06.917Z,23.83
2019-02-09T19:31:36.848Z,35.17
2019-02-09T19:36:46.267Z,21.83
2019-02-09T19:39:49.403Z,28.50
2019-02-09T19:42:37.781Z,30.43
2019-02-09T19:45:09.096Z,24.87
2019-02-09T20:02:11.631Z,27.83
2019-02-09T20:05:19.907Z,31.80
2019-02-09T20:16:51.174Z,27.27
2019-02-09T21:12:20.147Z,28.50
2019-02-09T21:13:49.731Z,16.70
2019-02-09T21:17:11.267Z,28.47
2019-02-09T21:32:40.327Z,25.77
2019-02-09T21:35:12.185Z,19.00
2019-02-09T21:38:28.979Z,20.90
2019-02-09T21:41:43.408Z,22.27
2019-02-09T21:47:41.366Z,20.47
2019-02-09T22:04:09.766Z,21.17
2019-02-09T22:22:41.480Z,22.93
2019-02-09T22:25:23.110Z,17.93
2019-02-09T22:43:32.324Z,17.20
2019-02-09T23:05:17.188Z,14.70
2019-02-09T23:08:42.891Z,10.03
2019-02-09T23:11:41.127Z,18.30
2019-02-09T23:14:16.914Z,17.67
2019-02-09T23:16:53.465Z,13.50
2019-02-09T23:19:30.806Z,14.03
2019-02-09T23:22:02.606Z,19.47
